Time;durP1;ratioP1;P1;durP2;ratioP2;P2;SDS_P1;SDS_P2;PMS_P1;PMS_P2;Temp;Humidity;BMP_temperature;BMP_pressure;BME280_temperature;BME280_humidity;BME280_pressure;Samples;Min_cycle;Max_cycle;Signal;HPM_P1;HPM_P2
2024/01/18 00:00:44;;;;;;;113.77;16.70;;;27.50;34.30;;;;;;5064671;28;20441;-69
2024/01/18 00:03:11;;;;;;;42.73;11.70;;;27.50;34.30;;;;;;5067642;28;20200;-69
2024/01/18 00:05:37;;;;;;;52.50;12.53;;;27.50;34.40;;;;;;5051097;28;20329;-70
2024/01/18 00:08:05;;;;;;;53.80;12.60;;;27.50;34.30;;;;;;5057075;28;20203;-69
2024/01/18 00:10:32;;;;;;;44.20;11.40;;;27.50;34.30;;;;;;5068021;28;20227;-68
2024/01/18 00:12:59;;;;;;;55.33;12.20;;;27.50;34.30;;;;;;5054562;28;20275;-70
2024/01/18 00:15:26;;;;;;;40.00;10.50;;;27.50;34.40;;;;;;5048097;28;20279;-72
2024/01/18 00:17:54;;;;;;;41.80;11.10;;;27.50;34.40;;;;;;5048051;28;20307;-72
2024/01/18 00:20:22;;;;;;;41.30;10.67;;;27.50;34.30;;;;;;5048426;28;20207;-70
2024/01/18 00:22:49;;;;;;;59.50;12.57;;;27.50;34.30;;;;;;5050487;28;20195;-72
2024/01/18 00:25:16;;;;;;;40.70;10.57;;;27.40;34.30;;;;;;5065398;28;20300;-71
2024/01/18 00:27:43;;;;;;;54.07;11.37;;;27.40;34.30;;;;;;5067645;28;20204;-74
2024/01/18 00:30:10;;;;;;;34.40;10.50;;;27.40;34.30;;;;;;5068299;28;20730;-69
2024/01/18 00:32:37;;;;;;;43.40;11.30;;;27.00;34.60;;;;;;5068187;28;20294;-69
2024/01/18 00:35:06;;;;;;;46.50;11.20;;;27.40;34.30;;;;;;5067753;28;20210;-73
2024/01/18 00:37:33;;;;;;;39.00;11.10;;;27.40;34.20;;;;;;5067956;28;20314;-74
2024/01/18 00:40:00;;;;;;;45.90;14.90;;;27.40;34.20;;;;;;5067193;28;20210;-72
2024/01/18 00:42:27;;;;;;;56.63;12.33;;;27.40;34.20;;;;;;5065759;28;20311;-73
2024/01/18 00:44:54;;;;;;;42.80;11.77;;;27.40;34.20;;;;;;5064785;28;20207;-70
2024/01/18 00:47:21;;;;;;;54.53;12.03;;;27.40;34.30;;;;;;5067984;28;20192;-72
2024/01/18 00:49:48;;;;;;;38.83;10.65;;;27.30;34.80;;;;;;5068038;28;20451;-74
2024/01/18 00:52:16;;;;;;;42.90;11.10;;;27.30;34.20;;;;;;5068237;28;20290;-72
2024/01/18 00:54:43;;;;;;;41.73;11.37;;;27.30;34.70;;;;;;5064931;28;20310;-77
2024/01/18 00:57:10;;;;;;;41.80;12.00;;;27.30;34.20;;;;;;5051875;28;20311;-71
2024/01/18 00:59:37;;;;;;;44.87;11.40;;;27.30;34.20;;;;;;5065374;28;20201;-74
2024/01/18 01:02:05;;;;;;;45.93;11.00;;;27.30;34.20;;;;;;5065123;28;20321;-73
2024/01/18 01:04:32;;;;;;;36.83;9.93;;;27.30;34.20;;;;;;5067163;28;20630;-73
2024/01/18 01:06:59;;;;;;;47.97;11.47;;;27.30;34.10;;;;;;5067765;28;20207;-73
2024/01/18 01:09:28;;;;;;;41.27;11.10;;;27.30;34.20;;;;;;5067706;28;20208;-73
2024/01/18 01:11:56;;;;;;;50.20;10.67;;;27.30;34.10;;;;;;5067485;28;20228;-70
2024/01/18 01:14:23;;;;;;;53.10;12.27;;;27.30;34.20;;;;;;5054203;28;20192;-74
2024/01/18 01:16:50;;;;;;;39.03;10.37;;;27.30;34.10;;;;;;5063431;28;20629;-75
2024/01/18 01:19:17;;;;;;;71.37;12.97;;;27.30;34.20;;;;;;5060449;28;20235;-70
2024/01/18 01:21:44;;;;;;;46.03;10.77;;;27.30;34.10;;;;;;5049248;28;20307;-71
2024/01/18 01:24:11;;;;;;;64.33;11.53;;;27.30;34.20;;;;;;5065548;28;20303;-72
2024/01/18 01:26:39;;;;;;;40.80;10.53;;;27.30;34.20;;;;;;5065677;28;20202;-76
2024/01/18 01:29:07;;;;;;;39.43;9.93;;;27.30;34.10;;;;;;5066698;28;20203;-71
2024/01/18 01:31:34;;;;;;;58.27;11.93;;;27.30;34.10;;;;;;5055591;28;20231;-70
2024/01/18 01:34:01;;;;;;;39.47;10.90;;;27.30;34.10;;;;;;5062456;28;20213;-69
2024/01/18 01:36:27;;;;;;;55.47;11.57;;;27.30;34.10;;;;;;5064938;28;20294;-69
2024/01/18 01:38:54;;;;;;;42.00;10.07;;;27.30;34.10;;;;;;5052755;28;20242;-68
2024/01/18 01:41:21;;;;;;;38.83;10.40;;;27.30;34.10;;;;;;5062621;28;20228;-69
2024/01/18 01:44:01;;;;;;;43.17;10.20;;;27.20;34.00;;;;;;5066863;28;20284;-69
2024/01/18 01:46:28;;;;;;;48.37;11.53;;;27.30;34.10;;;;;;5066159;28;20637;-69
2024/01/18 01:49:00;;;;;;;47.13;10.20;;;27.20;34.00;;;;;;5066925;28;20207;-68
2024/01/18 01:51:29;;;;;;;40.87;10.17;;;27.20;34.00;;;;;;5056090;28;20310;-69
2024/01/18 01:53:57;;;;;;;42.97;10.60;;;27.20;34.00;;;;;;5046872;28;20200;-69
2024/01/18 01:56:25;;;;;;;58.10;10.90;;;27.20;34.00;;;;;;5063885;28;20235;-69
2024/01/18 01:58:52;;;;;;;37.30;11.23;;;27.20;34.00;;;;;;5048126;28;20216;-72
2024/01/18 02:01:21;;;;;;;58.03;11.73;;;27.20;34.00;;;;;;5049223;28;20597;-69
2024/01/18 02:03:48;;;;;;;48.00;11.37;;;27.20;34.00;;;;;;5066647;28;20198;-70
2024/01/18 02:06:17;;;;;;;46.50;11.87;;;27.20;34.00;;;;;;5066413;28;20214;-74
2024/01/18 02:08:45;;;;;;;61.87;12.30;;;27.20;34.00;;;;;;5064252;28;20286;-73
2024/01/18 02:11:13;;;;;;;46.90;11.43;;;27.20;34.00;;;;;;5057579;28;20199;-75
2024/01/18 02:13:40;;;;;;;43.17;11.27;;;27.20;34.00;;;;;;5060755;28;20200;-76
2024/01/18 02:16:07;;;;;;;41.70;10.40;;;27.20;34.00;;;;;;5063711;28;20204;-72
2024/01/18 02:18:36;;;;;;;45.67;10.97;;;27.20;34.00;;;;;;5066389;28;20253;-74
2024/01/18 02:21:03;;;;;;;35.23;8.90;;;27.20;33.90;;;;;;5064450;28;20230;-72
2024/01/18 02:23:32;;;;;;;45.13;11.63;;;27.20;34.00;;;;;;5066103;28;20215;-75
2024/01/18 02:26:00;;;;;;;63.23;12.10;;;27.20;34.00;;;;;;5065348;28;20204;-78
2024/01/18 02:28:27;;;;;;;44.47;10.27;;;27.20;33.90;;;;;;5047907;28;20291;-75
2024/01/18 02:30:54;;;;;;;46.37;11.73;;;27.20;34.00;;;;;;5062725;28;20226;-75
2024/01/18 02:33:21;;;;;;;36.67;10.10;;;27.20;34.00;;;;;;5051003;28;20543;-76
2024/01/18 02:35:48;;;;;;;72.17;13.50;;;27.20;34.00;;;;;;5058812;28;20206;-76
2024/01/18 02:38:15;;;;;;;72.07;12.83;;;27.20;34.00;;;;;;5064191;28;20290;-76
2024/01/18 02:40:43;;;;;;;42.73;9.63;;;27.20;33.90;;;;;;5066836;28;20210;-73
2024/01/18 02:43:11;;;;;;;50.87;10.80;;;27.20;33.90;;;;;;5069453;28;20225;-76
2024/01/18 02:45:38;;;;;;;44.93;10.20;;;27.20;34.50;;;;;;5069625;28;20204;-78
2024/01/18 02:48:05;;;;;;;44.87;11.07;;;27.10;33.90;;;;;;5068059;28;20394;-77
2024/01/18 02:50:32;;;;;;;41.73;9.93;;;27.10;33.90;;;;;;5068707;28;20199;-75
2024/01/18 02:52:59;;;;;;;43.70;9.60;;;27.10;33.80;;;;;;5069077;28;20226;-74
2024/01/18 02:55:26;;;;;;;38.60;8.90;;;27.10;33.90;;;;;;5065808;28;20250;-76
2024/01/18 02:57:53;;;;;;;40.93;9.83;;;27.10;33.90;;;;;;5066358;28;20282;-76
2024/01/18 03:00:22;;;;;;;44.70;9.47;;;27.10;33.90;;;;;;5065419;28;20207;-76
2024/01/18 03:02:49;;;;;;;32.77;9.97;;;27.10;33.80;;;;;;5049706;28;20683;-76
2024/01/18 03:05:16;;;;;;;46.00;9.73;;;27.10;33.90;;;;;;5055721;28;20210;-75
2024/01/18 03:07:43;;;;;;;64.93;11.20;;;27.10;33.90;;;;;;5067734;28;20235;-77
2024/01/18 03:10:10;;;;;;;82.20;13.40;;;27.10;33.90;;;;;;5066957;28;20290;-74
2024/01/18 03:12:38;;;;;;;42.33;9.10;;;27.10;33.80;;;;;;5065745;28;20202;-77
2024/01/18 03:15:06;;;;;;;43.10;10.37;;;27.10;33.90;;;;;;5069109;28;20976;-78
2024/01/18 03:17:35;;;;;;;39.63;9.13;;;27.10;33.80;;;;;;5064930;28;20210;-76
2024/01/18 03:20:06;;;;;;;43.27;10.23;;;27.10;33.90;;;;;;5055180;28;20227;-73
2024/01/18 03:22:33;;;;;;;44.93;10.10;;;27.10;33.90;;;;;;5068933;28;20235;-73
2024/01/18 03:25:00;;;;;;;38.10;9.83;;;27.10;33.90;;;;;;5068821;28;20222;-71
2024/01/18 03:27:27;;;;;;;38.90;9.77;;;27.10;33.90;;;;;;5058291;28;20203;-74
2024/01/18 03:29:55;;;;;;;50.80;9.63;;;27.10;33.90;;;;;;5065198;28;20205;-72
2024/01/18 03:32:22;;;;;;;51.27;10.53;;;27.10;33.90;;;;;;5049003;28;20574;-72
2024/01/18 03:34:50;;;;;;;64.47;11.23;;;27.10;33.80;;;;;;5050011;28;20200;-74
2024/01/18 03:37:18;;;;;;;46.30;9.93;;;27.10;33.80;;;;;;5063703;28;20227;-73
2024/01/18 03:39:44;;;;;;;34.30;8.63;;;27.10;33.80;;;;;;5062725;28;20282;-73
2024/01/18 03:42:12;;;;;;;39.83;8.80;;;27.10;33.80;;;;;;5068994;28;20343;-72
2024/01/18 03:44:38;;;;;;;36.67;9.97;;;27.10;33.80;;;;;;5069248;28;20305;-72
2024/01/18 03:47:05;;;;;;;50.87;10.77;;;27.10;33.80;;;;;;5068635;28;20199;-72
2024/01/18 03:49:32;;;;;;;81.03;12.23;;;27.10;33.80;;;;;;5066529;28;20214;-72
2024/01/18 03:52:00;;;;;;;41.93;9.50;;;27.10;33.80;;;;;;5067034;28;20261;-71
2024/01/18 03:54:28;;;;;;;50.13;9.63;;;27.10;33.80;;;;;;5067119;28;20289;-71
2024/01/18 03:56:55;;;;;;;37.20;9.37;;;27.10;33.80;;;;;;5048742;28;20203;-68
2024/01/18 03:59:23;;;;;;;42.57;12.20;;;27.10;33.80;;;;;;5049550;28;20313;-68
2024/01/18 04:01:50;;;;;;;40.03;9.93;;;27.10;33.80;;;;;;5048783;28;20232;-68
2024/01/18 04:04:17;;;;;;;39.87;9.80;;;27.10;33.80;;;;;;5048971;28;20227;-69
2024/01/18 04:06:44;;;;;;;44.57;9.73;;;27.10;33.80;;;;;;5048307;28;20682;-70
2024/01/18 04:09:13;;;;;;;41.33;10.90;;;27.10;33.80;;;;;;5060007;28;20204;-72
2024/01/18 04:11:40;;;;;;;41.10;9.63;;;27.10;33.80;;;;;;5068652;28;20370;-69
2024/01/18 04:14:06;;;;;;;39.73;9.27;;;27.10;33.80;;;;;;5068431;28;20621;-67
2024/01/18 04:16:34;;;;;;;62.70;11.50;;;27.10;33.80;;;;;;5067012;28;20198;-67
2024/01/18 04:19:01;;;;;;;40.83;9.17;;;27.10;33.80;;;;;;5048575;28;20211;-68
2024/01/18 04:21:28;;;;;;;46.20;10.00;;;27.10;33.80;;;;;;5048357;28;20626;-68
2024/01/18 04:23:56;;;;;;;54.57;10.80;;;27.10;33.80;;;;;;5049181;28;20695;-69
2024/01/18 04:26:24;;;;;;;44.83;9.70;;;27.10;33.80;;;;;;5068423;28;20204;-68
2024/01/18 04:28:51;;;;;;;50.13;10.70;;;27.10;33.80;;;;;;5067837;28;20184;-69
2024/01/18 04:31:18;;;;;;;40.33;9.93;;;27.10;33.80;;;;;;5066708;28;20290;-67
2024/01/18 04:33:45;;;;;;;45.43;10.33;;;27.10;33.80;;;;;;5068026;28;20218;-67
2024/01/18 04:36:12;;;;;;;31.20;8.87;;;27.10;33.80;;;;;;5065556;28;20206;-67
2024/01/18 04:38:39;;;;;;;38.17;8.67;;;27.10;33.80;;;;;;5068167;28;20279;-69
2024/01/18 04:41:06;;;;;;;52.73;10.47;;;27.10;33.80;;;;;;5064797;28;20195;-69
2024/01/18 04:43:35;;;;;;;43.17;9.93;;;27.10;34.40;;;;;;5063955;28;20259;-70
2024/01/18 04:46:04;;;;;;;38.50;9.90;;;27.10;33.80;;;;;;5066013;28;20303;-71
2024/01/18 04:48:31;;;;;;;46.90;9.67;;;27.10;33.80;;;;;;5066616;28;20207;-71
2024/01/18 04:50:58;;;;;;;39.10;9.70;;;27.10;33.80;;;;;;5066169;28;20209;-74
2024/01/18 04:53:25;;;;;;;47.47;10.17;;;27.10;33.90;;;;;;5059810;28;20283;-72
2024/01/18 04:55:53;;;;;;;51.37;10.30;;;27.10;33.80;;;;;;5067659;28;20215;-74
2024/01/18 04:58:21;;;;;;;49.83;10.33;;;27.10;33.80;;;;;;5067418;28;20294;-74
2024/01/18 05:00:49;;;;;;;47.83;9.27;;;27.10;33.80;;;;;;5068371;28;20188;-77
2024/01/18 05:03:17;;;;;;;66.73;10.30;;;27.10;33.80;;;;;;5067016;28;20219;-74
2024/01/18 05:05:44;;;;;;;35.93;9.33;;;27.10;33.80;;;;;;5067501;28;20239;-70
2024/01/18 05:08:11;;;;;;;52.37;9.90;;;27.10;33.80;;;;;;5059849;28;20192;-70
2024/01/18 05:10:38;;;;;;;50.63;10.53;;;27.10;33.80;;;;;;5047722;28;20291;-71
2024/01/18 05:13:05;;;;;;;42.40;9.03;;;27.10;33.80;;;;;;5047601;28;20274;-71
2024/01/18 05:15:32;;;;;;;58.63;9.93;;;27.10;33.80;;;;;;5055107;28;20210;-71
2024/01/18 05:18:00;;;;;;;45.67;9.30;;;27.10;33.80;;;;;;5047198;28;20207;-70
2024/01/18 05:20:27;;;;;;;46.80;10.50;;;27.10;33.80;;;;;;5047467;28;20196;-71
2024/01/18 05:22:54;;;;;;;42.03;9.60;;;27.10;33.80;;;;;;5047189;28;20231;-72
2024/01/18 05:25:21;;;;;;;39.33;8.53;;;27.10;33.80;;;;;;5047497;28;20230;-71
2024/01/18 05:27:49;;;;;;;35.93;8.40;;;27.20;33.80;;;;;;5047441;28;20294;-71
2024/01/18 05:30:16;;;;;;;31.63;9.03;;;27.20;33.80;;;;;;5047348;28;20254;-73
2024/01/18 05:32:43;;;;;;;43.63;8.93;;;27.20;33.80;;;;;;5057641;28;20200;-71
2024/01/18 05:35:11;;;;;;;35.63;7.93;;;27.20;33.80;;;;;;5047553;28;20196;-71
2024/01/18 05:37:38;;;;;;;40.37;8.77;;;27.20;33.80;;;;;;5066116;28;20903;-72
2024/01/18 05:40:08;;;;;;;47.07;9.20;;;27.10;33.70;;;;;;5067424;28;20248;-70
2024/01/18 05:42:35;;;;;;;46.73;9.83;;;27.20;33.80;;;;;;5065719;28;20311;-72
2024/01/18 05:45:02;;;;;;;38.57;8.53;;;27.20;33.70;;;;;;5066728;28;20282;-72
2024/01/18 05:47:29;;;;;;;41.60;9.17;;;27.20;33.70;;;;;;5066898;28;20203;-71
2024/01/18 05:49:56;;;;;;;39.87;8.73;;;27.20;33.70;;;;;;5058151;28;20212;-70
2024/01/18 05:52:24;;;;;;;40.90;8.77;;;27.20;33.70;;;;;;5047077;28;20234;-70
2024/01/18 05:54:52;;;;;;;46.00;10.87;;;27.20;33.70;;;;;;5050675;28;20247;-72
2024/01/18 05:57:19;;;;;;;35.03;8.87;;;27.20;33.70;;;;;;5066962;28;20203;-70
2024/01/18 05:59:46;;;;;;;40.50;9.37;;;27.20;34.30;;;;;;5066561;28;20969;-71
2024/01/18 06:02:12;;;;;;;46.23;9.67;;;27.20;33.70;;;;;;5066178;28;20219;-70
2024/01/18 06:04:40;;;;;;;43.20;9.37;;;27.20;33.70;;;;;;5064943;28;20271;-70
2024/01/18 06:07:07;;;;;;;43.23;10.50;;;27.20;33.60;;;;;;5055326;28;20691;-71
2024/01/18 06:09:36;;;;;;;41.20;9.70;;;27.20;33.70;;;;;;5046788;28;20299;-73
2024/01/18 06:12:04;;;;;;;34.30;9.43;;;27.20;33.60;;;;;;5046328;28;20202;-72
2024/01/18 06:14:30;;;;;;;37.87;9.03;;;27.20;33.70;;;;;;5048499;28;20299;-69
2024/01/18 06:16:57;;;;;;;45.07;9.50;;;27.20;33.60;;;;;;5050623;28;20258;-70
2024/01/18 06:19:24;;;;;;;45.15;11.23;;;27.20;33.60;;;;;;5050471;28;20279;-71
2024/01/18 06:21:51;;;;;;;46.80;10.27;;;27.20;33.70;;;;;;5070973;28;20298;-71
2024/01/18 06:24:18;;;;;;;41.60;9.63;;;27.20;33.70;;;;;;5058521;28;20246;-71
2024/01/18 06:26:46;;;;;;;38.57;9.33;;;27.20;33.70;;;;;;5066831;28;20199;-71
2024/01/18 06:29:16;;;;;;;44.70;9.97;;;27.20;33.60;;;;;;5070129;28;20210;-71
2024/01/18 06:31:43;;;;;;;51.10;10.83;;;27.20;33.70;;;;;;5069392;28;20235;-69
2024/01/18 06:34:10;;;;;;;61.53;15.83;;;27.20;33.60;;;;;;5063592;28;20735;-72
2024/01/18 06:36:38;;;;;;;54.63;11.93;;;27.20;33.60;;;;;;5068866;28;20199;-70
2024/01/18 06:39:05;;;;;;;54.17;11.33;;;27.20;33.70;;;;;;5069665;28;20202;-71
2024/01/18 06:41:32;;;;;;;71.70;13.13;;;27.20;33.80;;;;;;5054855;28;20214;-69
2024/01/18 06:44:01;;;;;;;72.27;13.20;;;27.20;33.90;;;;;;5058592;28;20235;-71
2024/01/18 06:46:30;;;;;;;63.77;11.53;;;27.20;33.90;;;;;;5068526;28;20203;-70
2024/01/18 06:48:57;;;;;;;66.43;13.70;;;27.20;34.00;;;;;;5057770;28;20204;-72
2024/01/18 06:51:24;;;;;;;57.73;13.90;;;27.20;33.90;;;;;;5048847;28;20230;-75
2024/01/18 06:53:51;;;;;;;52.33;16.70;;;27.30;33.90;;;;;;5048779;28;20658;-75
2024/01/18 06:56:18;;;;;;;60.10;13.97;;;27.30;33.90;;;;;;5048749;28;20204;-75
2024/01/18 06:58:45;;;;;;;50.40;13.40;;;27.30;33.90;;;;;;5055290;28;20200;-70
2024/01/18 07:01:13;;;;;;;61.63;14.47;;;27.30;33.90;;;;;;5057267;28;20207;-67
2024/01/18 07:03:42;;;;;;;54.40;14.33;;;27.30;33.90;;;;;;5063359;28;20230;-72
2024/01/18 07:06:09;;;;;;;65.13;15.07;;;27.30;33.90;;;;;;5067628;28;20196;-71
2024/01/18 07:08:38;;;;;;;59.73;15.63;;;27.40;34.00;;;;;;5068447;28;20207;-72
2024/01/18 07:11:05;;;;;;;67.43;15.10;;;27.30;34.00;;;;;;5067467;28;20783;-72
2024/01/18 07:13:32;;;;;;;70.37;14.87;;;27.30;34.00;;;;;;5068114;28;20786;-70
2024/01/18 07:15:59;;;;;;;87.10;15.47;;;27.30;34.00;;;;;;5067098;28;20295;-70
2024/01/18 07:18:28;;;;;;;63.00;14.47;;;27.40;34.10;;;;;;5067854;28;20195;-70
2024/01/18 07:20:55;;;;;;;41.93;12.80;;;27.40;34.00;;;;;;5066705;28;20636;-70
2024/01/18 07:23:22;;;;;;;50.53;13.93;;;27.40;34.00;;;;;;5065469;28;20606;-68
2024/01/18 07:25:49;;;;;;;62.57;14.87;;;27.40;34.00;;;;;;5067357;28;20208;-68
2024/01/18 07:28:16;;;;;;;95.20;16.90;;;27.40;34.00;;;;;;5066997;28;20604;-67
2024/01/18 07:30:43;;;;;;;75.97;15.82;;;27.50;34.00;;;;;;5062519;28;20212;-69
2024/01/18 07:33:10;;;;;;;52.37;14.77;;;27.50;34.00;;;;;;5066470;28;20265;-69
2024/01/18 07:35:38;;;;;;;59.17;14.07;;;27.50;33.90;;;;;;5065444;28;20210;-65
2024/01/18 07:38:05;;;;;;;72.87;15.07;;;27.50;33.50;;;;;;5065490;28;20609;-77
2024/01/18 07:40:32;;;;;;;64.80;15.15;;;27.50;33.60;;;;;;5064645;28;20447;-69
2024/01/18 07:42:59;;;;;;;50.53;13.23;;;27.30;33.70;;;;;;5067086;28;20227;-64
2024/01/18 07:45:26;;;;;;;47.20;12.53;;;27.40;33.80;;;;;;5057655;28;20200;-72
2024/01/18 07:47:53;;;;;;;52.70;18.03;;;27.50;34.10;;;;;;5049891;28;20212;-69
2024/01/18 07:50:20;;;;;;;55.90;15.20;;;27.50;33.50;;;;;;5065989;28;20199;-69
2024/01/18 07:52:48;;;;;;;55.27;14.43;;;27.60;33.50;;;;;;5065532;28;20204;-69
2024/01/18 07:55:16;;;;;;;51.73;14.47;;;27.60;33.40;;;;;;5048218;28;20648;-73
2024/01/18 07:57:42;;;;;;;45.83;14.17;;;27.60;34.00;;;;;;5056455;28;20203;-72
2024/01/18 08:00:10;;;;;;;47.33;13.40;;;27.60;33.30;;;;;;5067558;28;20209;-77
2024/01/18 08:02:37;;;;;;;93.47;16.47;;;27.60;33.10;;;;;;5062648;28;20196;-74
2024/01/18 08:05:05;;;;;;;44.00;13.97;;;27.60;33.10;;;;;;5068180;28;20206;-72
2024/01/18 08:07:32;;;;;;;58.17;13.67;;;27.60;33.20;;;;;;5068331;28;20195;-72
2024/01/18 08:10:00;;;;;;;78.33;15.17;;;27.60;33.20;;;;;;5066465;28;20562;-72
2024/01/18 08:12:27;;;;;;;51.75;12.45;;;27.60;33.10;;;;;;5056120;28;20441;-75
2024/01/18 08:14:54;;;;;;;45.03;14.53;;;27.30;33.20;;;;;;5065302;28;20211;-75
2024/01/18 08:17:21;;;;;;;54.10;13.67;;;27.40;33.30;;;;;;5058672;28;20206;-76
2024/01/18 08:19:48;;;;;;;68.00;14.60;;;27.40;33.30;;;;;;5064462;28;20216;-74
2024/01/18 08:22:16;;;;;;;43.20;13.10;;;27.50;34.00;;;;;;5048212;28;20214;-74
2024/01/18 08:24:43;;;;;;;47.33;13.17;;;27.50;33.30;;;;;;5064026;28;20237;-76
2024/01/18 08:27:11;;;;;;;57.60;14.27;;;27.50;33.30;;;;;;5067552;28;20279;-75
2024/01/18 08:29:39;;;;;;;46.67;13.67;;;27.50;33.30;;;;;;5062602;28;20192;-76
2024/01/18 08:32:08;;;;;;;53.33;13.83;;;27.50;33.30;;;;;;5056640;28;20203;-75
2024/01/18 08:34:35;;;;;;;67.07;15.97;;;27.50;33.30;;;;;;5055074;28;20659;-76
2024/01/18 08:37:04;;;;;;;51.30;14.63;;;27.50;33.30;;;;;;5060201;28;20204;-78
2024/01/18 08:39:31;;;;;;;67.78;16.27;;;27.50;33.30;;;;;;5063272;28;20199;-74
2024/01/18 08:41:59;;;;;;;58.57;15.93;;;27.50;33.30;;;;;;5058278;28;20218;-72
2024/01/18 08:44:28;;;;;;;65.50;16.07;;;27.50;33.30;;;;;;5051123;28;20259;-73
2024/01/18 08:46:55;;;;;;;67.40;15.50;;;27.50;33.30;;;;;;5063463;28;20206;-74
2024/01/18 08:49:24;;;;;;;52.13;14.67;;;27.50;33.30;;;;;;5060882;28;20282;-74
2024/01/18 08:51:52;;;;;;;47.00;14.97;;;27.50;33.30;;;;;;5062841;28;20203;-74
2024/01/18 08:54:20;;;;;;;56.40;15.40;;;27.50;33.30;;;;;;5056588;28;20951;-75
2024/01/18 08:56:48;;;;;;;44.37;14.20;;;27.50;33.30;;;;;;5054117;28;20199;-74
2024/01/18 08:59:15;;;;;;;58.70;15.23;;;27.50;33.30;;;;;;5054709;28;20644;-75
2024/01/18 09:01:43;;;;;;;48.93;14.37;;;27.50;33.30;;;;;;5060794;28;20291;-74
2024/01/18 09:04:10;;;;;;;70.97;15.97;;;27.50;33.30;;;;;;5066815;28;20223;-74
2024/01/18 09:06:38;;;;;;;73.63;15.20;;;27.50;33.30;;;;;;5063880;28;20250;-73
2024/01/18 09:09:09;;;;;;;51.40;14.37;;;27.50;33.30;;;;;;5065064;28;20576;-72
2024/01/18 09:11:36;;;;;;;49.47;14.30;;;27.50;33.40;;;;;;5064152;28;20200;-74
2024/01/18 09:14:03;;;;;;;39.83;13.47;;;27.50;33.40;;;;;;5064725;28;20199;-69
2024/01/18 09:16:31;;;;;;;52.20;15.37;;;27.50;33.30;;;;;;5065931;28;20229;-74
2024/01/18 09:19:00;;;;;;;48.77;13.63;;;27.50;33.30;;;;;;5058411;28;20198;-74
2024/01/18 09:21:27;;;;;;;43.17;13.13;;;27.50;33.30;;;;;;5066899;28;20199;-70
2024/01/18 09:23:54;;;;;;;45.00;13.13;;;27.50;33.30;;;;;;5066093;28;20239;-74
2024/01/18 09:26:21;;;;;;;57.43;14.23;;;27.50;33.30;;;;;;5066237;28;20192;-75
2024/01/18 09:28:48;;;;;;;83.27;17.03;;;27.50;33.30;;;;;;5051811;28;20213;-81
2024/01/18 09:31:16;;;;;;;49.33;13.83;;;27.60;33.40;;;;;;5060056;28;20203;-75
2024/01/18 09:33:43;;;;;;;54.07;14.33;;;27.60;33.40;;;;;;5066696;28;20287;-78
2024/01/18 09:36:11;;;;;;;52.00;14.87;;;27.50;33.30;;;;;;5066111;28;20204;-73
2024/01/18 09:38:38;;;;;;;86.27;15.77;;;27.50;33.30;;;;;;5066323;28;20202;-74
2024/01/18 09:41:08;;;;;;;102.07;17.17;;;27.60;33.40;;;;;;5062260;28;20253;-75
2024/01/18 09:43:37;;;;;;;48.55;15.15;;;27.60;33.40;;;;;;5061990;28;20211;-79
2024/01/18 09:46:07;;;;;;;44.10;12.77;;;27.60;33.40;;;;;;5059740;28;20208;-74
2024/01/18 09:48:34;;;;;;;75.93;16.25;;;27.60;33.40;;;;;;5053992;28;20208;-79
2024/01/18 09:51:02;;;;;;;65.70;15.07;;;27.60;33.40;;;;;;5066567;28;20282;-78
2024/01/18 09:53:31;;;;;;;55.67;15.30;;;27.60;33.40;;;;;;5056195;28;20203;-77
2024/01/18 09:56:03;;;;;;;51.23;14.13;;;27.70;33.40;;;;;;5066196;28;20211;-80
2024/01/18 09:58:30;;;;;;;61.03;15.40;;;27.70;33.50;;;;;;5066985;28;20203;-78
2024/01/18 10:00:59;;;;;;;53.28;13.95;;;27.70;33.50;;;;;;5063058;28;20214;-78
2024/01/18 10:03:26;;;;;;;59.43;13.83;;;27.70;33.50;;;;;;5064235;28;20294;-80
2024/01/18 10:05:53;;;;;;;57.07;15.77;;;27.80;33.50;;;;;;5066363;28;21168;-79
2024/01/18 10:08:20;;;;;;;51.45;14.43;;;27.80;33.50;;;;;;5065314;28;20291;-79
2024/01/18 10:10:48;;;;;;;72.97;16.07;;;27.80;33.50;;;;;;5063054;28;20210;-80
2024/01/18 10:13:16;;;;;;;39.60;20.53;;;27.80;33.50;;;;;;5064139;28;20282;-73
2024/01/18 10:15:43;;;;;;;47.90;18.67;;;27.80;33.50;;;;;;5064148;28;20206;-74
2024/01/18 10:18:10;;;;;;;54.67;14.00;;;27.80;33.30;;;;;;5064997;28;20293;-77
2024/01/18 10:20:37;;;;;;;58.13;14.85;;;27.80;33.50;;;;;;5062064;28;20210;-75
2024/01/18 10:23:04;;;;;;;99.63;18.10;;;27.80;33.50;;;;;;5062519;28;20219;-76
2024/01/18 10:25:32;;;;;;;42.45;13.82;;;27.80;33.50;;;;;;5058364;28;20316;-80
2024/01/18 10:28:00;;;;;;;52.50;14.88;;;27.90;33.60;;;;;;5065795;28;20726;-78
2024/01/18 10:30:27;;;;;;;56.47;16.33;;;27.80;33.50;;;;;;5063712;28;20668;-79
2024/01/18 10:32:54;;;;;;;50.35;15.23;;;27.90;33.60;;;;;;5064540;28;20207;-80
2024/01/18 10:35:24;;;;;;;51.83;15.27;;;27.90;34.20;;;;;;5062438;28;20207;-77
2024/01/18 10:38:01;;;;;;;64.80;16.80;;;27.90;33.60;;;;;;5047032;28;20200;-76
2024/01/18 10:40:31;;;;;;;86.68;16.48;;;27.90;33.60;;;;;;5059979;28;20281;-75
2024/01/18 10:42:58;;;;;;;46.92;14.07;;;27.90;33.60;;;;;;5065939;28;20206;-77
2024/01/18 10:45:28;;;;;;;49.75;15.13;;;28.00;33.60;;;;;;5066132;28;20216;-74
2024/01/18 10:47:56;;;;;;;125.30;19.60;;;28.00;33.60;;;;;;5060658;28;20215;-77
2024/01/18 10:50:23;;;;;;;70.43;15.30;;;28.00;33.60;;;;;;5052968;28;20214;-76
2024/01/18 10:52:51;;;;;;;45.30;14.48;;;28.00;33.60;;;;;;5059596;28;20204;-78
2024/01/18 10:55:18;;;;;;;60.92;14.90;;;28.10;33.70;;;;;;5062320;28;20311;-78
2024/01/18 10:57:45;;;;;;;47.13;15.10;;;28.10;33.70;;;;;;5060114;28;20196;-80
2024/01/18 11:00:15;;;;;;;51.50;14.27;;;28.10;33.60;;;;;;5063698;28;20215;-79
2024/01/18 11:02:45;;;;;;;45.07;14.33;;;28.10;33.60;;;;;;5068513;28;20230;-81
2024/01/18 11:05:15;;;;;;;51.63;13.90;;;28.10;33.40;;;;;;5068608;28;20257;-79
2024/01/18 11:07:42;;;;;;;48.53;14.50;;;28.20;33.50;;;;;;5064953;28;20195;-73
2024/01/18 11:10:11;;;;;;;48.83;13.53;;;28.20;34.10;;;;;;5061933;28;20191;-73
2024/01/18 11:12:41;;;;;;;49.63;13.57;;;28.20;33.30;;;;;;5066801;28;20233;-74
2024/01/18 11:15:11;;;;;;;53.40;13.97;;;28.30;33.30;;;;;;5056312;28;20200;-77
2024/01/18 11:17:46;;;;;;;41.55;13.43;;;28.30;33.20;;;;;;5057273;28;20203;-75
2024/01/18 11:20:13;;;;;;;99.27;21.23;;;28.30;33.20;;;;;;5064472;28;20203;-75
2024/01/18 11:22:40;;;;;;;50.58;13.60;;;28.30;33.30;;;;;;5067854;28;20651;-80
2024/01/18 11:25:09;;;;;;;47.63;14.17;;;28.40;33.30;;;;;;5060715;28;20319;-85
2024/01/18 11:27:38;;;;;;;53.72;15.00;;;28.40;33.30;;;;;;5059357;28;20204;-84
2024/01/18 11:30:09;;;;;;;47.63;14.43;;;28.50;33.90;;;;;;5059645;28;20215;-87
2024/01/18 11:32:36;;;;;;;69.45;15.57;;;28.60;33.20;;;;;;5056480;28;20207;-86
2024/01/18 11:35:12;;;;;;;40.45;12.88;;;28.70;33.20;;;;;;5059363;28;20279;-85
2024/01/18 11:37:39;;;;;;;59.40;14.15;;;28.70;32.40;;;;;;5067254;28;20214;-89
2024/01/18 11:40:08;;;;;;;84.93;15.77;;;28.90;32.70;;;;;;5056397;28;20762;-89
2024/01/18 11:42:35;;;;;;;48.83;14.32;;;28.90;32.60;;;;;;5072801;28;20294;-90
2024/01/18 11:45:07;;;;;;;49.95;14.45;;;29.00;32.60;;;;;;5061740;28;20615;-86
2024/01/18 11:47:37;;;;;;;63.53;15.63;;;29.00;32.30;;;;;;5055240;28;20200;-82
2024/01/18 11:50:05;;;;;;;70.30;13.98;;;29.10;32.30;;;;;;5060977;28;20574;-78
2024/01/18 11:52:35;;;;;;;56.45;14.02;;;29.10;32.20;;;;;;5058443;28;20698;-76
2024/01/18 11:55:03;;;;;;;112.95;17.40;;;29.10;32.00;;;;;;5059434;28;20219;-82
2024/01/18 11:57:32;;;;;;;67.45;15.82;;;29.10;32.00;;;;;;5065172;28;20235;-80
2024/01/18 12:00:00;;;;;;;66.78;15.15;;;29.10;32.00;;;;;;5050729;28;20282;-81
2024/01/18 12:02:28;;;;;;;74.78;14.43;;;29.20;32.00;;;;;;5061723;28;20739;-82
2024/01/18 12:04:56;;;;;;;65.45;13.93;;;29.20;31.90;;;;;;5066448;28;20227;-82
2024/01/18 12:07:23;;;;;;;126.47;18.33;;;29.20;31.90;;;;;;5065658;28;20296;-80
2024/01/18 12:09:52;;;;;;;99.07;17.15;;;29.20;31.90;;;;;;5065799;28;20202;-81
2024/01/18 12:12:20;;;;;;;111.25;16.92;;;29.20;31.80;;;;;;5063269;28;20202;-80
2024/01/18 12:14:48;;;;;;;73.88;14.73;;;29.20;31.80;;;;;;5063907;28;20559;-79
2024/01/18 12:17:16;;;;;;;71.03;15.00;;;29.10;31.60;;;;;;5064493;28;20211;-79
2024/01/18 12:19:44;;;;;;;73.72;14.00;;;29.10;31.20;;;;;;5050305;28;20201;-84
2024/01/18 12:22:12;;;;;;;55.40;13.50;;;29.10;31.90;;;;;;5052216;28;20328;-85
2024/01/18 12:24:40;;;;;;;79.13;15.75;;;29.00;31.40;;;;;;5046073;28;20264;-87
2024/01/18 12:27:09;;;;;;;53.55;13.48;;;29.00;31.50;;;;;;5062631;28;20292;-77
2024/01/18 12:29:38;;;;;;;65.05;13.40;;;29.00;31.60;;;;;;5064147;28;20749;-77